Time;durP1;ratioP1;P1;durP2;ratioP2;P2;SDS_P1;SDS_P2;PMS_P1;PMS_P2;Temp;Humidity;BMP_temperature;BMP_pressure;BME280_temperature;BME280_humidity;BME280_pressure;Samples;Min_cycle;Max_cycle;Signal;HPM_P1;HPM_P2
2022/01/08 00:01:57;;;;;;;;;;;-1.80;90.60;;;;;;4998629;28;20403;-92
2022/01/08 00:04:23;;;;;;;;;;;-1.80;90.50;;;;;;4998030;28;19910;-93
2022/01/08 00:06:49;;;;;;;;;;;-1.70;90.50;;;;;;4997848;28;19965;-93
2022/01/08 00:09:14;;;;;;;;;;;-1.80;90.80;;;;;;4998901;28;20020;-93
2022/01/08 00:11:42;;;;;;;;;;;-1.80;90.80;;;;;;5018659;28;19914;-93
2022/01/08 00:14:09;;;;;;;;;;;-1.80;90.60;;;;;;5001238;28;19916;-93
2022/01/08 00:16:37;;;;;;;;;;;-1.80;90.80;;;;;;5001669;28;19909;-93
2022/01/08 00:19:03;;;;;;;;;;;-1.90;91.00;;;;;;4998716;28;19910;-93
2022/01/08 00:21:29;;;;;;;;;;;-1.90;90.90;;;;;;4998246;28;19917;-93
2022/01/08 00:23:55;;;;;;;;;;;-1.90;91.00;;;;;;5015042;28;19909;-93
2022/01/08 00:26:20;;;;;;;;;;;-1.90;91.00;;;;;;4998303;28;19913;-93
2022/01/08 00:28:46;;;;;;;;;;;-1.90;91.00;;;;;;4997894;28;19914;-93
2022/01/08 00:31:12;;;;;;;;;;;-1.90;91.20;;;;;;4997814;28;19910;-93
2022/01/08 00:33:38;;;;;;;;;;;-2.00;91.30;;;;;;4998494;28;19952;-93
2022/01/08 00:36:07;;;;;;;;;;;-1.90;91.70;;;;;;4997780;28;19921;-93
2022/01/08 00:38:32;;;;;;;;;;;-1.90;91.60;;;;;;4998041;28;19922;-93
2022/01/08 00:40:58;;;;;;;;;;;-1.90;91.50;;;;;;4997963;28;19916;-92
2022/01/08 00:43:24;;;;;;;;;;;-1.90;91.70;;;;;;5015123;28;19964;-93
2022/01/08 00:45:49;;;;;;;;;;;-1.90;91.60;;;;;;5000826;28;20382;-93
2022/01/08 00:48:15;;;;;;;;;;;-1.90;91.90;;;;;;5001093;28;20379;-93
2022/01/08 00:50:41;;;;;;;;;;;-2.00;91.90;;;;;;5002091;28;19913;-94
2022/01/08 00:53:06;;;;;;;;;;;-2.00;92.40;;;;;;5001290;28;20328;-93
2022/01/08 00:55:32;;;;;;;;;;;-2.00;92.00;;;;;;5001746;28;19916;-94
2022/01/08 00:57:57;;;;;;;;;;;-2.00;91.80;;;;;;5001990;28;20264;-92
2022/01/08 01:00:23;;;;;;;;;;;-2.10;92.00;;;;;;5001140;28;19910;-93
2022/01/08 01:02:49;;;;;;;;;;;-2.10;92.10;;;;;;5001032;28;19918;-94
2022/01/08 01:05:14;;;;;;;;;;;-2.10;92.30;;;;;;5001061;28;19910;-93
2022/01/08 01:07:40;;;;;;;;;;;-2.10;92.70;;;;;;5001159;28;19921;-93
2022/01/08 01:10:08;;;;;;;;;;;-2.00;92.60;;;;;;5001260;28;19949;-92
2022/01/08 01:12:33;;;;;;;;;;;-2.00;92.80;;;;;;5001062;28;19917;-93
2022/01/08 01:14:59;;;;;;;;;;;-2.00;93.00;;;;;;5000890;28;19910;-94
2022/01/08 01:17:25;;;;;;;;;;;-2.00;92.80;;;;;;5001436;28;19910;-93
2022/01/08 01:19:51;;;;;;;;;;;-2.00;92.70;;;;;;5000946;28;19909;-93
2022/01/08 01:22:19;;;;;;;;;;;-2.00;92.60;;;;;;5001151;28;19910;-93
2022/01/08 01:24:46;;;;;;;;;;;-1.90;92.60;;;;;;5000957;28;19925;-93
2022/01/08 01:30:10;;;;;;;;;;;-1.90;92.80;;;;;;5018253;28;20307;-93
2022/01/08 01:48:44;;;;;;;;;;;-1.90;92.80;;;;;;5018083;28;20367;-94
2022/01/08 01:51:16;;;;;;;;;;;-1.90;92.80;;;;;;5000024;28;20012;-93
2022/01/08 01:53:42;;;;;;;;;;;-1.90;92.60;;;;;;4999822;28;19910;-93
2022/01/08 01:56:08;;;;;;;;;;;-1.80;92.50;;;;;;4999615;28;19909;-94
2022/01/08 01:58:33;;;;;;;;;;;-1.80;92.70;;;;;;4999801;28;19910;-93
2022/01/08 02:01:01;;;;;;;;;;;-1.80;92.60;;;;;;5000065;28;20008;-91
2022/01/08 02:03:26;;;;;;;;;;;-1.80;92.80;;;;;;4999899;28;20029;-93
2022/01/08 02:05:52;;;;;;;;;;;-1.80;92.80;;;;;;4999918;28;19929;-92
2022/01/08 02:08:18;;;;;;;;;;;-1.80;92.70;;;;;;4999820;28;19918;-93
2022/01/08 02:10:43;;;;;;;;;;;-1.80;92.60;;;;;;5000225;28;19949;-93
2022/01/08 02:13:09;;;;;;;;;;;-1.80;92.60;;;;;;4999929;28;19921;-93
2022/01/08 02:15:36;;;;;;;;;;;-1.90;92.50;;;;;;4999896;28;19909;-93
2022/01/08 02:18:01;;;;;;;;;;;-1.90;92.50;;;;;;4999399;28;19960;-93
2022/01/08 02:20:27;;;;;;;;;;;-1.90;92.50;;;;;;5000215;28;19909;-93
2022/01/08 02:22:52;;;;;;;;;;;-1.90;92.30;;;;;;5000327;28;19909;-94
2022/01/08 02:25:22;;;;;;;;;;;-2.00;92.30;;;;;;5000623;28;19959;-94
2022/01/08 02:27:47;;;;;;;;;;;-2.00;92.50;;;;;;5000358;28;20265;-93
2022/01/08 02:30:13;;;;;;;;;;;-2.10;92.60;;;;;;5000056;28;19921;-94
2022/01/08 02:32:41;;;;;;;;;;;-2.10;92.90;;;;;;5000275;28;20011;-93
2022/01/08 02:35:07;;;;;;;;;;;-2.10;93.10;;;;;;4999920;28;19980;-94
2022/01/08 02:37:34;;;;;;;;;;;-2.10;93.10;;;;;;4999355;28;20369;-94
2022/01/08 02:40:02;;;;;;;;;;;-2.10;93.10;;;;;;5000543;28;19909;-94
2022/01/08 02:42:36;;;;;;;;;;;-2.10;93.00;;;;;;4999926;28;19910;-94
2022/01/08 02:45:03;;;;;;;;;;;-2.10;92.90;;;;;;5000225;28;20016;-94
2022/01/08 02:47:28;;;;;;;;;;;-2.10;92.80;;;;;;4999692;28;19913;-93
2022/01/08 02:49:56;;;;;;;;;;;-2.10;92.80;;;;;;5000471;28;19921;-93
2022/01/08 02:52:22;;;;;;;;;;;-2.10;93.00;;;;;;4999872;28;19959;-94
2022/01/08 02:54:48;;;;;;;;;;;-2.10;93.00;;;;;;4999882;28;19910;-94
2022/01/08 02:57:13;;;;;;;;;;;-2.10;93.10;;;;;;4999548;28;20265;-93
2022/01/08 02:59:39;;;;;;;;;;;-2.10;93.20;;;;;;4999483;28;20293;-94
2022/01/08 03:02:05;;;;;;;;;;;-2.10;93.00;;;;;;4999891;28;19913;-94
2022/01/08 03:04:30;;;;;;;;;;;-2.10;93.10;;;;;;4999915;28;19909;-94
2022/01/08 03:06:56;;;;;;;;;;;-2.10;93.20;;;;;;4998306;28;19913;-94
2022/01/08 03:09:21;;;;;;;;;;;-2.10;93.20;;;;;;4999063;28;20387;-94
2022/01/08 03:11:47;;;;;;;;;;;-2.10;93.10;;;;;;4999227;28;19969;-92
2022/01/08 03:14:12;;;;;;;;;;;-2.00;93.20;;;;;;4999404;28;19951;-94
2022/01/08 03:16:38;;;;;;;;;;;-2.00;93.20;;;;;;4998684;28;20444;-93
2022/01/08 03:19:10;;;;;;;;;;;-2.00;93.10;;;;;;4999572;28;19910;-94
2022/01/08 03:21:38;;;;;;;;;;;-2.00;93.10;;;;;;4999597;28;19917;-92
2022/01/08 03:24:06;;;;;;;;;;;-2.00;93.10;;;;;;5016275;28;19932;-93
2022/01/08 03:26:32;;;;;;;;;;;-2.00;93.50;;;;;;4998923;28;19918;-93
2022/01/08 03:28:57;;;;;;;;;;;-2.00;93.30;;;;;;4998680;28;19936;-93
2022/01/08 03:31:24;;;;;;;;;;;-2.00;93.40;;;;;;4999338;28;19910;-93
2022/01/08 03:33:51;;;;;;;;;;;-2.00;93.30;;;;;;4998527;28;19909;-93
2022/01/08 03:36:17;;;;;;;;;;;-2.00;93.20;;;;;;4997896;28;19925;-93
2022/01/08 03:38:42;;;;;;;;;;;-2.10;93.20;;;;;;4998780;28;19916;-93
2022/01/08 03:41:08;;;;;;;;;;;-2.10;93.30;;;;;;4999062;28;19969;-92
2022/01/08 03:43:34;;;;;;;;;;;-2.10;93.30;;;;;;5006391;28;19916;-92
2022/01/08 03:46:02;;;;;;;;;;;-2.10;93.40;;;;;;5006360;28;19913;-92
2022/01/08 03:51:19;;;;;;;;;;;-2.00;93.30;;;;;;4985747;28;19910;-93
2022/01/08 03:53:45;;;;;;;;;;;-2.10;93.00;;;;;;4998944;28;20007;-93
2022/01/08 03:56:11;;;;;;;;;;;-2.20;93.20;;;;;;4998322;28;20272;-92
2022/01/08 03:58:36;;;;;;;;;;;-2.20;93.20;;;;;;4998349;28;19937;-93
2022/01/08 04:01:02;;;;;;;;;;;-2.30;93.20;;;;;;4998354;28;19925;-93
2022/01/08 04:03:28;;;;;;;;;;;-2.30;93.30;;;;;;4998706;28;19916;-93
2022/01/08 04:05:53;;;;;;;;;;;-2.30;93.50;;;;;;4998328;28;20276;-92
2022/01/08 04:08:19;;;;;;;;;;;-2.30;93.50;;;;;;4998359;28;19940;-93
2022/01/08 04:10:45;;;;;;;;;;;-2.30;93.70;;;;;;4998525;28;19949;-93
2022/01/08 04:13:14;;;;;;;;;;;-2.30;93.70;;;;;;4998263;28;19915;-93
2022/01/08 04:15:43;;;;;;;;;;;-2.20;93.60;;;;;;4997849;28;19910;-93
2022/01/08 04:18:09;;;;;;;;;;;-2.20;93.50;;;;;;4999012;28;19914;-93
2022/01/08 04:20:41;;;;;;;;;;;-2.20;93.40;;;;;;5002579;28;19979;-93
2022/01/08 04:23:07;;;;;;;;;;;-2.20;93.50;;;;;;5002208;28;19992;-93
2022/01/08 04:25:32;;;;;;;;;;;-2.20;93.50;;;;;;5002204;28;19944;-93
2022/01/08 04:27:58;;;;;;;;;;;-2.20;93.70;;;;;;5001709;28;19921;-93
2022/01/08 04:30:23;;;;;;;;;;;-2.20;93.70;;;;;;5002477;28;19909;-92
2022/01/08 04:32:49;;;;;;;;;;;-2.20;93.60;;;;;;5002175;28;20379;-93
2022/01/08 04:35:15;;;;;;;;;;;-2.20;93.30;;;;;;5001766;28;19910;-93
2022/01/08 04:37:40;;;;;;;;;;;-2.20;93.30;;;;;;5001630;28;19910;-92
2022/01/08 04:40:07;;;;;;;;;;;-2.20;93.30;;;;;;5000975;28;19972;-93
2022/01/08 04:42:32;;;;;;;;;;;-2.30;93.40;;;;;;5001691;28;20308;-92
2022/01/08 04:44:58;;;;;;;;;;;-2.30;93.40;;;;;;5001930;28;19952;-93
2022/01/08 04:47:23;;;;;;;;;;;-2.40;93.50;;;;;;5001460;28;19920;-93
2022/01/08 04:49:49;;;;;;;;;;;-2.40;93.50;;;;;;5001397;28;19940;-93
2022/01/08 04:52:15;;;;;;;;;;;-2.40;93.60;;;;;;5001302;28;20408;-93
2022/01/08 04:54:40;;;;;;;;;;;-2.40;93.70;;;;;;5001088;28;19909;-93
2022/01/08 04:57:06;;;;;;;;;;;-2.30;93.80;;;;;;5001375;28;19960;-92
2022/01/08 04:59:31;;;;;;;;;;;-2.40;93.80;;;;;;5001571;28;19932;-93
2022/01/08 05:01:57;;;;;;;;;;;-2.40;93.80;;;;;;5001604;28;20370;-92
2022/01/08 05:04:22;;;;;;;;;;;-2.40;93.80;;;;;;5001021;28;19910;-93
2022/01/08 05:06:48;;;;;;;;;;;-2.40;93.70;;;;;;5000943;28;19914;-93
2022/01/08 05:09:14;;;;;;;;;;;-2.40;94.00;;;;;;5001155;28;19964;-93
2022/01/08 05:11:39;;;;;;;;;;;-2.40;93.90;;;;;;5000844;28;19909;-93
2022/01/08 05:14:06;;;;;;;;;;;-2.40;93.90;;;;;;5000847;28;19909;-93
2022/01/08 05:16:31;;;;;;;;;;;-2.40;93.90;;;;;;5001052;28;19957;-93
2022/01/08 05:18:59;;;;;;;;;;;-2.40;93.90;;;;;;5000635;28;19925;-93
2022/01/08 05:21:27;;;;;;;;;;;-2.40;93.90;;;;;;5000905;28;19916;-93
2022/01/08 05:23:53;;;;;;;;;;;-2.40;93.90;;;;;;5000791;28;19909;-92
2022/01/08 05:26:19;;;;;;;;;;;-2.40;93.70;;;;;;5001239;28;20357;-93
2022/01/08 05:28:45;;;;;;;;;;;-2.40;93.80;;;;;;5017998;28;19920;-91
2022/01/08 05:31:12;;;;;;;;;;;-2.40;93.90;;;;;;5000085;28;19910;-93
2022/01/08 05:33:37;;;;;;;;;;;-2.40;93.70;;;;;;5000533;28;20004;-93
2022/01/08 05:36:03;;;;;;;;;;;-2.50;93.90;;;;;;5018009;28;19976;-92
2022/01/08 05:38:29;;;;;;;;;;;-2.50;94.10;;;;;;5001840;28;20284;-93
2022/01/08 05:40:54;;;;;;;;;;;-2.50;94.20;;;;;;5000930;28;19971;-93
2022/01/08 05:43:20;;;;;;;;;;;-2.50;94.30;;;;;;5000787;28;19909;-92
2022/01/08 05:45:46;;;;;;;;;;;-2.50;94.10;;;;;;5000352;28;20349;-92
2022/01/08 05:48:12;;;;;;;;;;;-2.40;94.20;;;;;;5000264;28;19963;-92
2022/01/08 05:50:38;;;;;;;;;;;-2.50;94.10;;;;;;5000509;28;19963;-92
2022/01/08 05:53:04;;;;;;;;;;;-2.50;94.10;;;;;;5000389;28;19910;-93
2022/01/08 05:55:29;;;;;;;;;;;-2.40;94.20;;;;;;5000218;28;20004;-93
2022/01/08 05:57:55;;;;;;;;;;;-2.40;94.20;;;;;;5000166;28;19909;-93
2022/01/08 06:00:20;;;;;;;;;;;-2.40;94.00;;;;;;4999774;28;19917;-93
2022/01/08 06:02:46;;;;;;;;;;;-2.40;94.30;;;;;;5000351;28;19909;-93
2022/01/08 06:05:12;;;;;;;;;;;-2.40;94.20;;;;;;4999949;28;20279;-93
2022/01/08 06:07:38;;;;;;;;;;;-2.30;94.20;;;;;;5000428;28;20056;-92
2022/01/08 06:10:04;;;;;;;;;;;-2.30;94.00;;;;;;5000557;28;19914;-92
2022/01/08 06:12:29;;;;;;;;;;;-2.20;94.10;;;;;;5000282;28;19909;-92
2022/01/08 06:14:55;;;;;;;;;;;-2.20;94.10;;;;;;4999666;28;20269;-92
2022/01/08 06:17:21;;;;;;;;;;;-2.20;94.00;;;;;;4999714;28;20133;-92
2022/01/08 06:19:46;;;;;;;;;;;-2.10;94.00;;;;;;4999793;28;19964;-93
2022/01/08 06:22:12;;;;;;;;;;;-2.10;94.00;;;;;;5000191;28;19917;-92
2022/01/08 06:24:37;;;;;;;;;;;-2.00;94.00;;;;;;5000019;28;19959;-93
2022/01/08 06:27:03;;;;;;;;;;;-2.00;94.00;;;;;;5016777;28;20380;-93
2022/01/08 06:29:29;;;;;;;;;;;-1.90;93.90;;;;;;4999592;28;19982;-93
2022/01/08 06:31:55;;;;;;;;;;;-1.80;93.90;;;;;;5017263;28;19917;-92
2022/01/08 06:34:21;;;;;;;;;;;-1.70;93.70;;;;;;4999299;28;19952;-93
2022/01/08 06:36:49;;;;;;;;;;;-1.70;93.60;;;;;;5001834;28;19936;-93
2022/01/08 06:39:15;;;;;;;;;;;-1.60;93.60;;;;;;5001717;28;19910;-93
2022/01/08 06:41:41;;;;;;;;;;;-1.50;93.50;;;;;;5002011;28;19996;-93
2022/01/08 06:44:06;;;;;;;;;;;-1.40;93.40;;;;;;5000725;28;20419;-93
2022/01/08 06:46:32;;;;;;;;;;;-1.30;93.40;;;;;;4999629;28;19924;-93
2022/01/08 06:48:58;;;;;;;;;;;-1.30;93.30;;;;;;4999318;28;19914;-92
2022/01/08 06:51:24;;;;;;;;;;;-1.10;93.20;;;;;;4998796;28;20313;-93
2022/01/08 06:53:49;;;;;;;;;;;-1.00;93.10;;;;;;4999015;28;19909;-92
2022/01/08 06:56:17;;;;;;;;;;;-0.90;92.90;;;;;;4998640;28;20280;-93
2022/01/08 06:58:42;;;;;;;;;;;-0.80;92.80;;;;;;5000198;28;19917;-93
2022/01/08 07:01:08;;;;;;;;;;;-0.70;92.60;;;;;;4999145;28;20273;-93
2022/01/08 07:03:34;;;;;;;;;;;-0.60;92.50;;;;;;5017219;28;19913;-92
2022/01/08 07:05:59;;;;;;;;;;;-0.50;92.40;;;;;;4999035;28;19920;-92
2022/01/08 07:08:25;;;;;;;;;;;-0.40;92.20;;;;;;4999043;28;19941;-92
2022/01/08 07:10:50;;;;;;;;;;;-0.30;92.10;;;;;;4998613;28;19916;-92
2022/01/08 07:13:16;;;;;;;;;;;-0.20;91.90;;;;;;4998946;28;19944;-93
2022/01/08 07:15:41;;;;;;;;;;;-0.20;91.70;;;;;;4999216;28;19913;-93
2022/01/08 07:18:07;;;;;;;;;;;-0.10;91.70;;;;;;4999298;28;20017;-93
2022/01/08 07:20:32;;;;;;;;;;;0.00;91.60;;;;;;4998941;28;20352;-93
2022/01/08 07:22:59;;;;;;;;;;;0.20;91.60;;;;;;4999163;28;19918;-92
2022/01/08 07:25:25;;;;;;;;;;;0.30;91.50;;;;;;4998661;28;20335;-93
2022/01/08 07:27:50;;;;;;;;;;;0.40;91.40;;;;;;4998773;28;19917;-94
2022/01/08 07:30:16;;;;;;;;;;;0.50;91.10;;;;;;4998793;28;19960;-93
2022/01/08 07:32:43;;;;;;;;;;;0.60;90.90;;;;;;4999193;28;19921;-94
2022/01/08 07:35:08;;;;;;;;;;;0.70;90.60;;;;;;4999198;28;20353;-94
2022/01/08 07:37:34;;;;;;;;;;;0.80;90.30;;;;;;5016981;28;19916;-94
2022/01/08 07:40:00;;;;;;;;;;;0.90;90.30;;;;;;5000180;28;20257;-94
2022/01/08 07:42:25;;;;;;;;;;;1.10;90.40;;;;;;4998906;28;20376;-93
2022/01/08 07:44:51;;;;;;;;;;;1.20;90.10;;;;;;4998693;28;20008;-94
2022/01/08 07:47:17;;;;;;;;;;;1.30;89.40;;;;;;4999649;28;20353;-94
2022/01/08 07:49:43;;;;;;;;;;;1.40;89.30;;;;;;4998763;28;19917;-94
2022/01/08 07:52:08;;;;;;;;;;;1.50;89.50;;;;;;4998206;28;19910;-94
2022/01/08 07:54:34;;;;;;;;;;;1.60;88.40;;;;;;4998146;28;19969;-94
2022/01/08 07:57:00;;;;;;;;;;;1.60;86.60;;;;;;5017344;28;19909;-95
2022/01/08 07:59:25;;;;;;;;;;;1.70;87.60;;;;;;5000983;28;19909;-95
2022/01/08 08:01:51;;;;;;;;;;;1.80;86.50;;;;;;5000821;28;20194;-95
2022/01/08 08:04:16;;;;;;;;;;;1.80;87.30;;;;;;4998915;28;19977;-94
2022/01/08 08:06:50;;;;;;;;;;;1.90;87.10;;;;;;4999815;28;19914;-94
2022/01/08 08:09:15;;;;;;;;;;;1.90;86.30;;;;;;4999456;28;19918;-94
2022/01/08 08:11:41;;;;;;;;;;;1.90;84.50;;;;;;4998366;28;19920;-95
2022/01/08 08:14:07;;;;;;;;;;;2.00;85.80;;;;;;4999384;28;19910;-94
2022/01/08 08:16:38;;;;;;;;;;;2.00;85.90;;;;;;5000994;28;19909;-95
2022/01/08 08:19:04;;;;;;;;;;;2.10;84.20;;;;;;4999934;28;19916;-94
2022/01/08 08:21:30;;;;;;;;;;;2.10;82.50;;;;;;5000094;28;19972;-95
2022/01/08 08:23:56;;;;;;;;;;;2.20;81.90;;;;;;5000209;28;19913;-95
2022/01/08 08:26:39;;;;;;;;;;;;;;;;;;;;;
2022/01/08 08:29:07;;;;;;;;;;;2.20;81.80;;;;;;5018341;28;19920;-94
2022/01/08 08:31:43;;;;;;;;;;;2.30;81.00;;;;;;5000446;28;19917;-94
2022/01/08 08:34:09;;;;;;;;;;;2.40;81.10;;;;;;5000645;28;19913;-94
2022/01/08 08:36:34;;;;;;;;;;;2.50;80.70;;;;;;5017724;28;20352;-94
2022/01/08 08:39:00;;;;;;;;;;;2.50;80.80;;;;;;4999299;28;19909;-94
2022/01/08 08:41:26;;;;;;;;;;;2.60;79.80;;;;;;4999210;28;19910;-94
2022/01/08 08:44:02;;;;;;;;;;;2.60;78.10;;;;;;5001680;28;19914;-95
2022/01/08 08:46:31;;;;;;;;;;;2.60;75.60;;;;;;5000446;28;19920;-93
2022/01/08 08:49:06;;;;;;;;;;;2.60;75.20;;;;;;5018241;28;20364;-94
2022/01/08 08:51:34;;;;;;;;;;;2.60;76.40;;;;;;5000500;28;19913;-93
2022/01/08 08:54:00;;;;;;;;;;;2.60;74.10;;;;;;5017574;28;19910;-93
2022/01/08 08:56:28;;;;;;;;;;;2.60;74.50;;;;;;4999340;28;19910;-94
2022/01/08 08:59:13;;;;;;;;;;;2.60;74.50;;;;;;5000958;28;20000;-94
2022/01/08 09:01:39;;;;;;;;;;;2.60;72.00;;;;;;5024623;28;19977;-94
2022/01/08 09:04:07;;;;;;;;;;;2.60;74.60;;;;;;5018449;28;19910;-95
2022/01/08 09:06:33;;;;;;;;;;;2.60;73.80;;;;;;5019815;28;19913;-95
2022/01/08 09:08:59;;;;;;;;;;;2.60;75.40;;;;;;5005102;28;19913;-94
2022/01/08 09:11:25;;;;;;;;;;;2.70;76.20;;;;;;5017329;28;19949;-93
2022/01/08 09:13:56;;;;;;;;;;;2.70;76.10;;;;;;5023608;28;19898;-95
2022/01/08 09:16:24;;;;;;;;;;;2.70;75.50;;;;;;5018300;28;19956;-94
2022/01/08 09:18:53;;;;;;;;;;;2.70;75.40;;;;;;5010297;28;19910;-94
2022/01/08 09:21:29;;;;;;;;;;;;;;;;;;;;;
2022/01/08 09:23:55;;;;;;;;;;;2.70;73.10;;;;;;5026263;28;20412;-96
2022/01/08 09:26:23;;;;;;;;;;;2.70;74.20;;;;;;5005781;28;19953;-94
2022/01/08 09:28:49;;;;;;;;;;;2.70;74.40;;;;;;5006497;28;20428;-94
2022/01/08 09:31:17;;;;;;;;;;;2.70;71.60;;;;;;5002565;28;19940;-94
2022/01/08 09:33:45;;;;;;;;;;;2.70;73.10;;;;;;5002978;28;19914;-94
2022/01/08 09:36:10;;;;;;;;;;;2.80;72.50;;;;;;5002375;28;19921;-94
2022/01/08 09:38:38;;;;;;;;;;;2.80;71.90;;;;;;5004256;28;19910;-94
2022/01/08 09:41:04;;;;;;;;;;;2.80;73.40;;;;;;5001134;28;19909;-93
2022/01/08 09:43:33;;;;;;;;;;;2.80;72.80;;;;;;5002046;28;19909;-93
2022/01/08 09:46:06;;;;;;;;;;;2.80;73.20;;;;;;5002694;28;19961;-93
2022/01/08 09:48:32;;;;;;;;;;;2.90;72.70;;;;;;5004831;28;19923;-92
2022/01/08 09:51:00;;;;;;;;;;;2.90;71.60;;;;;;5010829;28;20008;-93
2022/01/08 09:53:49;;;;;;;;;;;3.00;70.80;;;;;;5011548;28;19909;-94
2022/01/08 09:56:14;;;;;;;;;;;3.00;69.20;;;;;;5025506;28;19921;-93
2022/01/08 09:59:05;;;;;;;;;;;3.00;67.80;;;;;;5010110;28;19910;-94
2022/01/08 10:01:40;;;;;;;;;;;2.90;66.60;;;;;;5008957;28;19909;-94
2022/01/08 10:04:09;;;;;;;;;;;2.90;67.70;;;;;;5004060;28;20002;-94
2022/01/08 10:06:35;;;;;;;;;;;2.90;64.90;;;;;;5004130;28;20008;-95
2022/01/08 10:09:10;;;;;;;;;;;2.90;68.30;;;;;;5002073;28;19914;-94
2022/01/08 10:11:38;;;;;;;;;;;2.90;68.30;;;;;;5003656;28;19956;-94
2022/01/08 10:14:14;;;;;;;;;;;3.00;67.50;;;;;;5001687;28;19932;-95
2022/01/08 10:19:31;;;;;;;;;;;2.90;66.60;;;;;;5020063;28;20012;-94
2022/01/08 10:21:57;;;;;;;;;;;2.90;65.50;;;;;;5002022;28;19945;-94
2022/01/08 10:24:26;;;;;;;;;;;3.00;63.90;;;;;;5000796;28;20352;-94
2022/01/08 10:26:59;;;;;;;;;;;3.00;62.30;;;;;;5000404;28;19922;-93
2022/01/08 10:29:25;;;;;;;;;;;3.00;65.80;;;;;;5000769;28;20361;-94
2022/01/08 10:31:52;;;;;;;;;;;3.00;64.10;;;;;;5001512;28;19936;-94
2022/01/08 10:34:19;;;;;;;;;;;3.00;63.40;;;;;;5000847;28;19916;-94
2022/01/08 10:36:52;;;;;;;;;;;3.00;65.50;;;;;;4999772;28;20385;-94
2022/01/08 10:39:19;;;;;;;;;;;3.00;66.90;;;;;;5003404;28;19972;-94
2022/01/08 10:41:48;;;;;;;;;;;3.00;66.10;;;;;;5001477;28;20012;-94
2022/01/08 10:44:17;;;;;;;;;;;3.00;66.40;;;;;;5000617;28;19956;-95
2022/01/08 10:47:01;;;;;;;;;;;3.00;65.60;;;;;;4999969;28;20008;-95
2022/01/08 10:49:35;;;;;;;;;;;3.00;66.00;;;;;;4999710;28;19924;-94
2022/01/08 10:52:14;;;;;;;;;;;3.00;65.70;;;;;;4999728;28;19914;-94
2022/01/08 10:54:46;;;;;;;;;;;3.10;65.30;;;;;;5000625;28;20356;-94
2022/01/08 10:57:20;;;;;;;;;;;3.10;66.00;;;;;;5000816;28;20390;-94
2022/01/08 10:59:55;;;;;;;;;;;3.00;66.20;;;;;;4999483;28;19910;-95
2022/01/08 11:02:26;;;;;;;;;;;3.00;66.50;;;;;;4999264;28;20360;-95
2022/01/08 11:04:53;;;;;;;;;;;3.00;67.20;;;;;;4998547;28;20293;-94
2022/01/08 11:07:22;;;;;;;;;;;3.00;67.40;;;;;;4998662;28;19917;-94
2022/01/08 11:09:51;;;;;;;;;;;3.10;66.80;;;;;;4999548;28;19963;-94
2022/01/08 11:12:19;;;;;;;;;;;3.10;67.00;;;;;;4999796;28;20418;-94
2022/01/08 11:17:36;;;;;;;;;;;3.20;65.40;;;;;;5017687;28;19931;-94
2022/01/08 11:20:02;;;;;;;;;;;3.20;65.70;;;;;;5000542;28;19920;-95
2022/01/08 11:22:30;;;;;;;;;;;3.20;65.50;;;;;;4998758;28;20288;-95
2022/01/08 11:25:00;;;;;;;;;;;3.20;66.30;;;;;;5017747;28;20026;-94
2022/01/08 11:27:32;;;;;;;;;;;3.20;65.00;;;;;;5006145;28;19914;-93
2022/01/08 11:30:04;;;;;;;;;;;3.20;65.50;;;;;;4999515;28;19913;-92
2022/01/08 11:32:30;;;;;;;;;;;3.20;66.90;;;;;;4999878;28;19909;-92
2022/01/08 11:34:56;;;;;;;;;;;3.20;66.50;;;;;;5000407;28;19910;-92
2022/01/08 11:37:24;;;;;;;;;;;3.20;66.70;;;;;;4999963;28;19949;-92
2022/01/08 11:39:51;;;;;;;;;;;3.20;66.00;;;;;;5002513;28;19909;-92
2022/01/08 11:42:18;;;;;;;;;;;3.10;64.40;;;;;;4999953;28;20300;-92
2022/01/08 11:44:44;;;;;;;;;;;3.00;65.80;;;;;;4998578;28;19910;-93
2022/01/08 11:47:10;;;;;;;;;;;3.00;65.20;;;;;;4998631;28;19914;-93
2022/01/08 11:49:40;;;;;;;;;;;3.00;65.70;;;;;;4998773;28;22939;-92
2022/01/08 11:52:15;;;;;;;;;;;2.90;65.50;;;;;;5000470;28;19909;-92
2022/01/08 11:54:44;;;;;;;;;;;2.90;66.60;;;;;;4998440;28;19952;-93
2022/01/08 11:57:14;;;;;;;;;;;2.90;65.40;;;;;;4998367;28;20001;-93
2022/01/08 11:59:40;;;;;;;;;;;2.90;65.70;;;;;;4997876;28;19909;-93
2022/01/08 12:02:07;;;;;;;;;;;2.80;65.90;;;;;;5016194;28;20385;-93
2022/01/08 12:04:33;;;;;;;;;;;2.90;66.30;;;;;;4998723;28;19921;-94
2022/01/08 12:07:18;;;;;;;;;;;2.90;66.70;;;;;;5018116;28;19914;-93
2022/01/08 12:09:44;;;;;;;;;;;2.90;64.10;;;;;;4999105;28;19913;-93
2022/01/08 12:12:10;;;;;;;;;;;2.90;63.70;;;;;;4999385;28;19916;-94
2022/01/08 12:14:38;;;;;;;;;;;3.00;65.80;;;;;;5001203;28;19910;-93
2022/01/08 12:17:17;;;;;;;;;;;3.00;63.00;;;;;;5001774;28;19917;-94
2022/01/08 12:19:50;;;;;;;;;;;2.90;64.40;;;;;;5002073;28;20360;-94
2022/01/08 12:22:16;;;;;;;;;;;2.90;63.50;;;;;;5002829;28;19997;-93
2022/01/08 12:24:42;;;;;;;;;;;2.80;64.70;;;;;;5001063;28;20036;-93
2022/01/08 12:27:27;;;;;;;;;;;2.80;64.30;;;;;;5001564;28;19913;-93
2022/01/08 12:29:52;;;;;;;;;;;2.80;65.50;;;;;;4999263;28;19939;-93
2022/01/08 12:35:03;;;;;;;;;;;2.60;64.70;;;;;;5015786;28;19917;-94
2022/01/08 12:37:40;;;;;;;;;;;2.60;63.70;;;;;;4998374;28;19921;-94
2022/01/08 12:40:10;;;;;;;;;;;2.50;64.10;;;;;;5000517;28;19914;-94
2022/01/08 12:42:37;;;;;;;;;;;2.50;65.50;;;;;;5002155;28;19909;-93
2022/01/08 12:45:02;;;;;;;;;;;2.50;66.50;;;;;;5001860;28;19909;-94
2022/01/08 12:47:38;;;;;;;;;;;2.50;66.00;;;;;;5001759;28;19974;-93
2022/01/08 12:50:16;;;;;;;;;;;2.50;66.70;;;;;;5019332;28;19992;-92
2022/01/08 12:53:00;;;;;;;;;;;2.60;66.00;;;;;;5002045;28;20372;-93
2022/01/08 12:55:26;;;;;;;;;;;2.60;66.90;;;;;;5003583;28;19933;-92
2022/01/08 12:57:52;;;;;;;;;;;2.70;67.30;;;;;;5002695;28;19914;-93
2022/01/08 13:00:17;;;;;;;;;;;2.70;66.60;;;;;;5002618;28;20448;-93
2022/01/08 13:02:47;;;;;;;;;;;2.70;67.80;;;;;;5002151;28;19915;-93
2022/01/08 13:05:13;;;;;;;;;;;2.70;66.50;;;;;;5019095;28;19913;-93
2022/01/08 13:07:51;;;;;;;;;;;2.70;66.50;;;;;;5007176;28;19924;-95
2022/01/08 13:10:17;;;;;;;;;;;2.60;65.80;;;;;;5013415;28;19916;-93
2022/01/08 13:12:43;;;;;;;;;;;2.60;66.40;;;;;;5014563;28;19916;-93
2022/01/08 13:15:09;;;;;;;;;;;2.60;66.90;;;;;;5009342;28;19957;-92
2022/01/08 13:17:35;;;;;;;;;;;2.50;67.20;;;;;;5002836;28;20459;-91
2022/01/08 13:20:05;;;;;;;;;;;2.50;66.70;;;;;;5002674;28;20055;-95
2022/01/08 13:22:31;;;;;;;;;;;2.40;67.20;;;;;;5001344;28;19909;-95
2022/01/08 13:24:57;;;;;;;;;;;2.40;67.30;;;;;;5001208;28;19917;-94
2022/01/08 13:27:24;;;;;;;;;;;2.40;67.10;;;;;;5000599;28;19928;-91
2022/01/08 13:29:54;;;;;;;;;;;2.30;67.50;;;;;;5018440;28;19910;-92
2022/01/08 13:32:21;;;;;;;;;;;2.20;68.00;;;;;;4999854;28;19949;-92
2022/01/08 13:34:57;;;;;;;;;;;2.20;68.30;;;;;;5018401;28;19992;-91
2022/01/08 13:37:42;;;;;;;;;;;2.20;68.90;;;;;;4983801;28;19925;-93
2022/01/08 13:40:08;;;;;;;;;;;2.10;69.10;;;;;;4981141;28;19917;-94
2022/01/08 13:42:35;;;;;;;;;;;2.10;69.00;;;;;;4980622;28;19910;-93
2022/01/08 13:45:03;;;;;;;;;;;2.00;69.00;;;;;;4982936;28;19910;-93
2022/01/08 13:47:33;;;;;;;;;;;2.00;69.20;;;;;;4981020;28;20403;-94
2022/01/08 13:50:23;;;;;;;;;;;1.90;68.60;;;;;;4982587;28;19929;-93
2022/01/08 13:52:58;;;;;;;;;;;1.90;69.10;;;;;;5000572;28;19910;-94
2022/01/08 13:56:02;;;;;;;;;;;1.80;69.10;;;;;;4981568;28;19910;-93
2022/01/08 13:58:28;;;;;;;;;;;1.70;69.10;;;;;;4981075;28;19936;-94
2022/01/08 14:01:00;;;;;;;;;;;1.70;69.50;;;;;;4980763;28;19948;-92
2022/01/08 14:03:27;;;;;;;;;;;1.60;69.60;;;;;;4998500;28;19910;-93
2022/01/08 14:05:56;;;;;;;;;;;1.60;70.00;;;;;;4982094;28;19914;-94
2022/01/08 14:08:22;;;;;;;;;;;1.50;69.70;;;;;;4980616;28;19914;-95
2022/01/08 14:10:53;;;;;;;;;;;1.50;69.80;;;;;;4998860;28;19921;-95
2022/01/08 14:13:20;;;;;;;;;;;1.40;70.10;;;;;;4980880;28;20357;-95
2022/01/08 14:15:49;;;;;;;;;;;1.40;70.30;;;;;;5010309;28;19933;-94
2022/01/08 14:18:20;;;;;;;;;;;1.30;70.40;;;;;;5014417;28;19917;-94
2022/01/08 14:20:45;;;;;;;;;;;1.20;70.70;;;;;;4991221;28;19910;-92
2022/01/08 14:23:16;;;;;;;;;;;1.20;71.00;;;;;;4996576;28;19914;-94
2022/01/08 14:25:43;;;;;;;;;;;1.20;71.20;;;;;;4982200;28;20008;-94
2022/01/08 14:28:15;;;;;;;;;;;1.20;71.30;;;;;;4997727;28;19937;-95
2022/01/08 14:30:51;;;;;;;;;;;1.10;71.60;;;;;;4985111;28;19926;-95
2022/01/08 14:33:16;;;;;;;;;;;1.10;71.80;;;;;;4998588;28;19917;-96
2022/01/08 14:35:43;;;;;;;;;;;1.10;71.90;;;;;;4999321;28;20357;-96
2022/01/08 14:38:11;;;;;;;;;;;1.10;72.10;;;;;;4982102;28;19921;-96
2022/01/08 14:40:43;;;;;;;;;;;1.10;72.20;;;;;;5007623;28;19917;-96
2022/01/08 14:43:10;;;;;;;;;;;1.00;72.30;;;;;;4990179;28;19914;-95
2022/01/08 14:45:37;;;;;;;;;;;1.00;72.50;;;;;;4982311;28;19973;-95
2022/01/08 14:48:15;;;;;;;;;;;1.00;72.50;;;;;;4998528;28;19920;-95
2022/01/08 14:51:00;;;;;;;;;;;1.00;72.60;;;;;;4983971;28;19917;-94
2022/01/08 14:53:33;;;;;;;;;;;1.00;72.70;;;;;;4980236;28;19913;-94
2022/01/08 14:55:59;;;;;;;;;;;1.00;72.90;;;;;;4979954;28;19917;-94
2022/01/08 14:58:25;;;;;;;;;;;1.00;72.90;;;;;;4980469;28;19910;-94
2022/01/08 15:00:51;;;;;;;;;;;1.10;72.90;;;;;;4980849;28;19910;-94